sensor_id;sensor_type;location;lat;lon;timestamp;P1;durP1;ratioP1;P2;durP2;ratioP2
56043;SDS011;41912;51.022;3.664;2023-08-30T00:00:36;11.55;;;4.65;;
56043;SDS011;41912;51.022;3.664;2023-08-30T00:03:01;8.57;;;4.82;;
56043;SDS011;41912;51.022;3.664;2023-08-30T00:05:27;6.07;;;4.18;;
56043;SDS011;41912;51.022;3.664;2023-08-30T00:07:53;10.23;;;5.32;;
56043;SDS011;41912;51.022;3.664;2023-08-30T00:10:19;11.05;;;4.75;;
56043;SDS011;41912;51.022;3.664;2023-08-30T00:12:45;6.90;;;4.72;;
56043;SDS011;41912;51.022;3.664;2023-08-30T00:15:10;9.50;;;5.25;;
56043;SDS011;41912;51.022;3.664;2023-08-30T00:17:36;8.70;;;4.75;;
56043;SDS011;41912;51.022;3.664;2023-08-30T00:20:02;6.45;;;4.25;;
56043;SDS011;41912;51.022;3.664;2023-08-30T00:22:28;6.20;;;4.25;;
56043;SDS011;41912;51.022;3.664;2023-08-30T00:24:53;7.65;;;4.20;;
56043;SDS011;41912;51.022;3.664;2023-08-30T00:27:19;14.52;;;5.30;;
56043;SDS011;41912;51.022;3.664;2023-08-30T00:29:47;10.45;;;4.50;;
56043;SDS011;41912;51.022;3.664;2023-08-30T00:32:13;7.35;;;3.95;;
56043;SDS011;41912;51.022;3.664;2023-08-30T00:34:39;7.25;;;4.40;;
56043;SDS011;41912;51.022;3.664;2023-08-30T00:37:04;8.57;;;4.63;;
56043;SDS011;41912;51.022;3.664;2023-08-30T00:39:30;7.80;;;4.22;;
56043;SDS011;41912;51.022;3.664;2023-08-30T00:41:56;8.35;;;4.68;;
56043;SDS011;41912;51.022;3.664;2023-08-30T00:44:22;7.68;;;4.85;;
56043;SDS011;41912;51.022;3.664;2023-08-30T00:46:47;8.82;;;3.92;;
56043;SDS011;41912;51.022;3.664;2023-08-30T00:49:13;10.00;;;4.72;;
56043;SDS011;41912;51.022;3.664;2023-08-30T00:51:39;10.98;;;5.28;;
56043;SDS011;41912;51.022;3.664;2023-08-30T00:54:05;13.48;;;4.78;;
56043;SDS011;41912;51.022;3.664;2023-08-30T00:56:32;7.78;;;4.82;;
56043;SDS011;41912;51.022;3.664;2023-08-30T00:58:58;7.38;;;4.47;;
56043;SDS011;41912;51.022;3.664;2023-08-30T01:01:24;11.88;;;5.13;;
56043;SDS011;41912;51.022;3.664;2023-08-30T01:03:50;7.00;;;3.95;;
56043;SDS011;41912;51.022;3.664;2023-08-30T01:06:16;16.15;;;5.50;;
56043;SDS011;41912;51.022;3.664;2023-08-30T01:08:42;9.45;;;4.60;;
56043;SDS011;41912;51.022;3.664;2023-08-30T01:13:50;7.82;;;4.53;;
56043;SDS011;41912;51.022;3.664;2023-08-30T01:16:21;9.52;;;4.07;;
56043;SDS011;41912;51.022;3.664;2023-08-30T01:18:49;8.38;;;4.80;;
56043;SDS011;41912;51.022;3.664;2023-08-30T01:21:23;9.77;;;5.05;;
56043;SDS011;41912;51.022;3.664;2023-08-30T01:23:59;8.05;;;4.60;;
56043;SDS011;41912;51.022;3.664;2023-08-30T01:29:30;9.60;;;4.47;;
56043;SDS011;41912;51.022;3.664;2023-08-30T01:31:58;10.60;;;4.75;;
56043;SDS011;41912;51.022;3.664;2023-08-30T01:34:24;10.88;;;4.63;;
56043;SDS011;41912;51.022;3.664;2023-08-30T01:36:50;12.38;;;4.65;;
56043;SDS011;41912;51.022;3.664;2023-08-30T01:39:17;10.15;;;4.90;;
56043;SDS011;41912;51.022;3.664;2023-08-30T01:41:43;9.10;;;4.68;;
56043;SDS011;41912;51.022;3.664;2023-08-30T01:44:09;8.20;;;4.60;;
56043;SDS011;41912;51.022;3.664;2023-08-30T01:46:36;8.95;;;4.57;;
56043;SDS011;41912;51.022;3.664;2023-08-30T01:49:03;7.65;;;4.68;;
56043;SDS011;41912;51.022;3.664;2023-08-30T01:51:31;8.75;;;4.78;;
56043;SDS011;41912;51.022;3.664;2023-08-30T01:53:58;7.85;;;4.65;;
56043;SDS011;41912;51.022;3.664;2023-08-30T01:56:24;9.68;;;5.20;;
56043;SDS011;41912;51.022;3.664;2023-08-30T01:58:49;8.43;;;4.70;;
56043;SDS011;41912;51.022;3.664;2023-08-30T02:01:15;7.32;;;4.78;;
56043;SDS011;41912;51.022;3.664;2023-08-30T02:03:43;7.72;;;4.85;;
56043;SDS011;41912;51.022;3.664;2023-08-30T02:06:11;8.55;;;4.75;;
56043;SDS011;41912;51.022;3.664;2023-08-30T02:08:46;9.52;;;4.82;;
56043;SDS011;41912;51.022;3.664;2023-08-30T02:11:19;11.73;;;4.78;;
56043;SDS011;41912;51.022;3.664;2023-08-30T02:13:47;9.05;;;4.45;;
56043;SDS011;41912;51.022;3.664;2023-08-30T02:16:15;9.00;;;4.97;;
56043;SDS011;41912;51.022;3.664;2023-08-30T02:18:42;7.82;;;5.30;;
56043;SDS011;41912;51.022;3.664;2023-08-30T02:21:09;8.60;;;4.63;;
56043;SDS011;41912;51.022;3.664;2023-08-30T02:23:35;10.50;;;4.85;;
56043;SDS011;41912;51.022;3.664;2023-08-30T02:26:01;8.82;;;5.15;;
56043;SDS011;41912;51.022;3.664;2023-08-30T02:28:31;7.38;;;4.57;;
56043;SDS011;41912;51.022;3.664;2023-08-30T02:30:56;7.60;;;5.18;;
56043;SDS011;41912;51.022;3.664;2023-08-30T02:33:22;10.18;;;5.50;;
56043;SDS011;41912;51.022;3.664;2023-08-30T02:35:48;10.27;;;5.72;;
56043;SDS011;41912;51.022;3.664;2023-08-30T02:38:13;8.32;;;5.28;;
56043;SDS011;41912;51.022;3.664;2023-08-30T02:40:39;10.30;;;5.05;;
56043;SDS011;41912;51.022;3.664;2023-08-30T02:43:05;9.38;;;5.88;;
56043;SDS011;41912;51.022;3.664;2023-08-30T02:45:30;9.07;;;5.53;;
56043;SDS011;41912;51.022;3.664;2023-08-30T02:47:56;10.40;;;5.70;;
56043;SDS011;41912;51.022;3.664;2023-08-30T02:50:22;8.10;;;5.00;;
56043;SDS011;41912;51.022;3.664;2023-08-30T02:52:48;9.38;;;5.65;;
56043;SDS011;41912;51.022;3.664;2023-08-30T02:55:14;11.65;;;5.50;;
56043;SDS011;41912;51.022;3.664;2023-08-30T02:57:39;8.75;;;5.57;;
56043;SDS011;41912;51.022;3.664;2023-08-30T03:00:05;8.32;;;5.38;;
56043;SDS011;41912;51.022;3.664;2023-08-30T03:02:31;7.57;;;5.55;;
56043;SDS011;41912;51.022;3.664;2023-08-30T03:05:00;10.93;;;5.47;;
56043;SDS011;41912;51.022;3.664;2023-08-30T03:07:28;13.23;;;6.60;;
56043;SDS011;41912;51.022;3.664;2023-08-30T03:09:54;9.27;;;5.95;;
56043;SDS011;41912;51.022;3.664;2023-08-30T03:12:20;8.02;;;5.57;;
56043;SDS011;41912;51.022;3.664;2023-08-30T03:14:45;11.30;;;5.85;;
56043;SDS011;41912;51.022;3.664;2023-08-30T03:17:11;9.23;;;5.82;;
56043;SDS011;41912;51.022;3.664;2023-08-30T03:19:37;11.05;;;6.15;;
56043;SDS011;41912;51.022;3.664;2023-08-30T03:22:03;10.50;;;5.82;;
56043;SDS011;41912;51.022;3.664;2023-08-30T03:24:28;10.15;;;5.95;;
56043;SDS011;41912;51.022;3.664;2023-08-30T03:26:54;9.70;;;5.45;;
56043;SDS011;41912;51.022;3.664;2023-08-30T03:29:20;9.30;;;5.22;;
56043;SDS011;41912;51.022;3.664;2023-08-30T03:31:45;10.93;;;5.80;;
56043;SDS011;41912;51.022;3.664;2023-08-30T03:34:11;8.30;;;5.05;;
56043;SDS011;41912;51.022;3.664;2023-08-30T03:36:37;12.82;;;5.40;;
56043;SDS011;41912;51.022;3.664;2023-08-30T03:39:03;8.40;;;5.18;;
56043;SDS011;41912;51.022;3.664;2023-08-30T03:41:29;9.13;;;4.88;;
56043;SDS011;41912;51.022;3.664;2023-08-30T03:43:54;8.35;;;4.82;;
56043;SDS011;41912;51.022;3.664;2023-08-30T03:46:20;10.60;;;4.55;;
56043;SDS011;41912;51.022;3.664;2023-08-30T03:48:45;11.40;;;4.05;;
56043;SDS011;41912;51.022;3.664;2023-08-30T03:51:11;9.43;;;5.38;;
56043;SDS011;41912;51.022;3.664;2023-08-30T03:53:37;7.50;;;4.07;;
56043;SDS011;41912;51.022;3.664;2023-08-30T03:56:03;8.10;;;4.50;;
56043;SDS011;41912;51.022;3.664;2023-08-30T03:58:29;7.28;;;4.18;;
56043;SDS011;41912;51.022;3.664;2023-08-30T04:00:55;7.93;;;4.70;;
56043;SDS011;41912;51.022;3.664;2023-08-30T04:03:23;12.50;;;5.38;;
56043;SDS011;41912;51.022;3.664;2023-08-30T04:05:54;7.03;;;4.50;;
56043;SDS011;41912;51.022;3.664;2023-08-30T04:08:22;8.45;;;4.35;;
56043;SDS011;41912;51.022;3.664;2023-08-30T04:10:51;8.43;;;5.00;;
56043;SDS011;41912;51.022;3.664;2023-08-30T04:13:17;8.50;;;5.00;;
56043;SDS011;41912;51.022;3.664;2023-08-30T04:15:43;10.00;;;5.32;;
56043;SDS011;41912;51.022;3.664;2023-08-30T04:18:09;6.28;;;4.80;;
56043;SDS011;41912;51.022;3.664;2023-08-30T04:20:34;9.23;;;5.32;;
56043;SDS011;41912;51.022;3.664;2023-08-30T04:23:00;8.07;;;5.00;;
56043;SDS011;41912;51.022;3.664;2023-08-30T04:25:27;8.43;;;5.47;;
56043;SDS011;41912;51.022;3.664;2023-08-30T04:27:53;11.80;;;6.03;;
56043;SDS011;41912;51.022;3.664;2023-08-30T04:30:19;9.85;;;6.20;;
56043;SDS011;41912;51.022;3.664;2023-08-30T04:32:45;11.05;;;6.63;;
56043;SDS011;41912;51.022;3.664;2023-08-30T04:35:10;12.43;;;6.38;;
56043;SDS011;41912;51.022;3.664;2023-08-30T04:37:36;10.05;;;7.10;;
56043;SDS011;41912;51.022;3.664;2023-08-30T04:40:07;11.02;;;7.72;;
56043;SDS011;41912;51.022;3.664;2023-08-30T04:42:34;14.73;;;8.95;;
56043;SDS011;41912;51.022;3.664;2023-08-30T04:45:00;11.73;;;8.27;;
56043;SDS011;41912;51.022;3.664;2023-08-30T04:47:28;12.32;;;8.90;;
56043;SDS011;41912;51.022;3.664;2023-08-30T04:49:54;16.67;;;10.25;;
56043;SDS011;41912;51.022;3.664;2023-08-30T04:52:20;14.70;;;10.18;;
56043;SDS011;41912;51.022;3.664;2023-08-30T04:54:45;15.43;;;10.43;;
56043;SDS011;41912;51.022;3.664;2023-08-30T04:57:11;13.85;;;10.05;;
56043;SDS011;41912;51.022;3.664;2023-08-30T04:59:41;13.85;;;10.80;;
56043;SDS011;41912;51.022;3.664;2023-08-30T05:02:07;18.38;;;11.27;;
56043;SDS011;41912;51.022;3.664;2023-08-30T05:04:33;17.27;;;11.48;;
56043;SDS011;41912;51.022;3.664;2023-08-30T05:06:59;18.90;;;12.95;;
56043;SDS011;41912;51.022;3.664;2023-08-30T05:09:25;19.20;;;11.82;;
56043;SDS011;41912;51.022;3.664;2023-08-30T05:11:51;23.35;;;11.57;;
56043;SDS011;41912;51.022;3.664;2023-08-30T05:14:17;17.38;;;11.95;;
56043;SDS011;41912;51.022;3.664;2023-08-30T05:16:42;20.85;;;12.02;;
56043;SDS011;41912;51.022;3.664;2023-08-30T05:19:08;17.75;;;11.68;;
56043;SDS011;41912;51.022;3.664;2023-08-30T05:21:33;15.63;;;10.93;;
56043;SDS011;41912;51.022;3.664;2023-08-30T05:23:59;16.33;;;10.65;;
56043;SDS011;41912;51.022;3.664;2023-08-30T05:26:25;16.38;;;11.27;;
56043;SDS011;41912;51.022;3.664;2023-08-30T05:28:51;18.58;;;10.90;;
56043;SDS011;41912;51.022;3.664;2023-08-30T05:31:17;16.05;;;10.02;;
56043;SDS011;41912;51.022;3.664;2023-08-30T05:33:42;14.55;;;9.43;;
56043;SDS011;41912;51.022;3.664;2023-08-30T05:36:08;16.77;;;10.45;;
56043;SDS011;41912;51.022;3.664;2023-08-30T05:38:33;13.50;;;8.98;;
56043;SDS011;41912;51.022;3.664;2023-08-30T05:40:59;15.18;;;8.80;;
56043;SDS011;41912;51.022;3.664;2023-08-30T05:43:25;13.00;;;7.90;;
56043;SDS011;41912;51.022;3.664;2023-08-30T05:45:50;10.80;;;6.82;;
56043;SDS011;41912;51.022;3.664;2023-08-30T05:48:16;12.98;;;7.30;;
56043;SDS011;41912;51.022;3.664;2023-08-30T05:50:42;9.23;;;6.72;;
56043;SDS011;41912;51.022;3.664;2023-08-30T05:53:07;10.88;;;6.95;;
56043;SDS011;41912;51.022;3.664;2023-08-30T05:55:33;10.02;;;6.45;;
56043;SDS011;41912;51.022;3.664;2023-08-30T05:57:59;18.17;;;7.28;;
56043;SDS011;41912;51.022;3.664;2023-08-30T06:00:24;8.82;;;6.15;;
56043;SDS011;41912;51.022;3.664;2023-08-30T06:02:51;10.82;;;5.60;;
56043;SDS011;41912;51.022;3.664;2023-08-30T06:05:17;8.63;;;6.05;;
56043;SDS011;41912;51.022;3.664;2023-08-30T06:07:43;9.57;;;5.95;;
56043;SDS011;41912;51.022;3.664;2023-08-30T06:10:09;9.02;;;5.97;;
56043;SDS011;41912;51.022;3.664;2023-08-30T06:12:35;10.38;;;6.20;;
56043;SDS011;41912;51.022;3.664;2023-08-30T06:15:01;7.68;;;5.68;;
56043;SDS011;41912;51.022;3.664;2023-08-30T06:17:26;10.88;;;6.53;;
56043;SDS011;41912;51.022;3.664;2023-08-30T06:19:52;10.88;;;6.85;;
56043;SDS011;41912;51.022;3.664;2023-08-30T06:22:18;7.93;;;6.28;;
56043;SDS011;41912;51.022;3.664;2023-08-30T06:24:43;7.88;;;6.20;;
56043;SDS011;41912;51.022;3.664;2023-08-30T06:27:09;10.15;;;6.32;;
56043;SDS011;41912;51.022;3.664;2023-08-30T06:29:34;9.95;;;7.00;;
56043;SDS011;41912;51.022;3.664;2023-08-30T06:32:00;13.88;;;6.13;;
56043;SDS011;41912;51.022;3.664;2023-08-30T06:34:26;9.10;;;6.05;;
56043;SDS011;41912;51.022;3.664;2023-08-30T06:36:51;9.15;;;6.35;;
56043;SDS011;41912;51.022;3.664;2023-08-30T06:39:17;8.30;;;6.10;;
56043;SDS011;41912;51.022;3.664;2023-08-30T06:41:43;10.25;;;6.15;;
56043;SDS011;41912;51.022;3.664;2023-08-30T06:44:08;9.55;;;6.22;;
56043;SDS011;41912;51.022;3.664;2023-08-30T06:46:34;10.23;;;5.72;;
56043;SDS011;41912;51.022;3.664;2023-08-30T06:49:00;9.55;;;5.78;;
56043;SDS011;41912;51.022;3.664;2023-08-30T06:51:25;6.38;;;4.82;;
56043;SDS011;41912;51.022;3.664;2023-08-30T06:53:51;9.60;;;6.05;;
56043;SDS011;41912;51.022;3.664;2023-08-30T06:56:17;10.50;;;6.78;;
56043;SDS011;41912;51.022;3.664;2023-08-30T06:58:42;8.65;;;5.30;;
56043;SDS011;41912;51.022;3.664;2023-08-30T07:01:08;8.00;;;5.55;;
56043;SDS011;41912;51.022;3.664;2023-08-30T07:03:33;10.05;;;5.70;;
56043;SDS011;41912;51.022;3.664;2023-08-30T07:05:59;8.65;;;5.28;;
56043;SDS011;41912;51.022;3.664;2023-08-30T07:08:25;8.57;;;5.13;;
56043;SDS011;41912;51.022;3.664;2023-08-30T07:10:51;8.27;;;4.78;;
56043;SDS011;41912;51.022;3.664;2023-08-30T07:13:17;6.80;;;4.65;;
56043;SDS011;41912;51.022;3.664;2023-08-30T07:15:43;6.93;;;4.82;;
56043;SDS011;41912;51.022;3.664;2023-08-30T07:18:09;8.15;;;5.50;;
56043;SDS011;41912;51.022;3.664;2023-08-30T07:20:35;8.30;;;4.53;;
56043;SDS011;41912;51.022;3.664;2023-08-30T07:23:02;8.77;;;5.20;;
56043;SDS011;41912;51.022;3.664;2023-08-30T07:25:29;11.00;;;5.72;;
56043;SDS011;41912;51.022;3.664;2023-08-30T07:27:55;7.85;;;5.15;;
56043;SDS011;41912;51.022;3.664;2023-08-30T07:30:21;7.15;;;5.18;;
56043;SDS011;41912;51.022;3.664;2023-08-30T07:32:47;8.07;;;5.85;;
56043;SDS011;41912;51.022;3.664;2023-08-30T07:35:13;7.55;;;5.80;;
56043;SDS011;41912;51.022;3.664;2023-08-30T07:37:39;10.05;;;6.38;;
56043;SDS011;41912;51.022;3.664;2023-08-30T07:40:04;9.27;;;5.60;;
56043;SDS011;41912;51.022;3.664;2023-08-30T07:42:30;8.77;;;6.30;;
56043;SDS011;41912;51.022;3.664;2023-08-30T07:44:56;10.20;;;6.43;;
56043;SDS011;41912;51.022;3.664;2023-08-30T07:47:22;8.10;;;6.15;;
56043;SDS011;41912;51.022;3.664;2023-08-30T07:49:47;7.63;;;6.63;;
56043;SDS011;41912;51.022;3.664;2023-08-30T07:52:13;12.55;;;6.43;;
56043;SDS011;41912;51.022;3.664;2023-08-30T07:54:39;9.13;;;6.90;;
56043;SDS011;41912;51.022;3.664;2023-08-30T07:57:05;11.30;;;7.00;;
56043;SDS011;41912;51.022;3.664;2023-08-30T07:59:35;12.20;;;7.53;;
56043;SDS011;41912;51.022;3.664;2023-08-30T08:02:02;11.15;;;7.95;;
56043;SDS011;41912;51.022;3.664;2023-08-30T08:04:28;7.80;;;7.00;;
56043;SDS011;41912;51.022;3.664;2023-08-30T08:06:54;10.27;;;7.30;;
56043;SDS011;41912;51.022;3.664;2023-08-30T08:09:20;12.38;;;8.18;;
56043;SDS011;41912;51.022;3.664;2023-08-30T08:11:46;9.77;;;7.80;;
56043;SDS011;41912;51.022;3.664;2023-08-30T08:14:15;11.15;;;8.30;;
56043;SDS011;41912;51.022;3.664;2023-08-30T08:16:41;12.48;;;8.23;;
56043;SDS011;41912;51.022;3.664;2023-08-30T08:19:07;10.15;;;7.88;;
56043;SDS011;41912;51.022;3.664;2023-08-30T08:21:33;13.20;;;8.55;;
56043;SDS011;41912;51.022;3.664;2023-08-30T08:23:59;12.57;;;8.77;;
56043;SDS011;41912;51.022;3.664;2023-08-30T08:26:25;14.93;;;8.02;;
56043;SDS011;41912;51.022;3.664;2023-08-30T08:28:51;12.13;;;7.43;;
56043;SDS011;41912;51.022;3.664;2023-08-30T08:31:16;10.65;;;6.05;;
56043;SDS011;41912;51.022;3.664;2023-08-30T08:33:42;16.00;;;5.68;;
56043;SDS011;41912;51.022;3.664;2023-08-30T08:36:08;8.75;;;5.00;;
56043;SDS011;41912;51.022;3.664;2023-08-30T08:38:34;6.75;;;4.75;;
56043;SDS011;41912;51.022;3.664;2023-08-30T08:41:05;8.88;;;4.82;;
56043;SDS011;41912;51.022;3.664;2023-08-30T08:43:32;13.52;;;5.32;;
56043;SDS011;41912;51.022;3.664;2023-08-30T08:46:01;10.65;;;5.30;;
56043;SDS011;41912;51.022;3.664;2023-08-30T08:48:28;11.07;;;5.70;;
56043;SDS011;41912;51.022;3.664;2023-08-30T08:50:56;13.05;;;4.43;;
56043;SDS011;41912;51.022;3.664;2023-08-30T08:53:22;10.90;;;4.72;;
56043;SDS011;41912;51.022;3.664;2023-08-30T08:55:48;16.25;;;3.78;;
56043;SDS011;41912;51.022;3.664;2023-08-30T08:58:24;14.98;;;3.58;;
56043;SDS011;41912;51.022;3.664;2023-08-30T09:00:50;9.93;;;3.42;;
56043;SDS011;41912;51.022;3.664;2023-08-30T09:03:17;7.95;;;3.25;;
56043;SDS011;41912;51.022;3.664;2023-08-30T09:05:43;9.95;;;3.28;;
56043;SDS011;41912;51.022;3.664;2023-08-30T09:08:11;8.50;;;3.35;;
56043;SDS011;41912;51.022;3.664;2023-08-30T09:10:39;8.57;;;3.40;;
56043;SDS011;41912;51.022;3.664;2023-08-30T09:13:05;7.80;;;2.72;;
56043;SDS011;41912;51.022;3.664;2023-08-30T09:15:34;8.35;;;2.83;;
56043;SDS011;41912;51.022;3.664;2023-08-30T09:18:02;9.52;;;2.85;;
56043;SDS011;41912;51.022;3.664;2023-08-30T09:20:28;10.70;;;3.22;;
56043;SDS011;41912;51.022;3.664;2023-08-30T09:22:53;11.57;;;2.70;;
56043;SDS011;41912;51.022;3.664;2023-08-30T09:25:23;8.60;;;2.80;;
56043;SDS011;41912;51.022;3.664;2023-08-30T09:27:50;7.20;;;2.05;;
56043;SDS011;41912;51.022;3.664;2023-08-30T09:30:22;8.00;;;2.40;;
56043;SDS011;41912;51.022;3.664;2023-08-30T09:32:48;8.73;;;2.58;;
56043;SDS011;41912;51.022;3.664;2023-08-30T09:35:13;12.20;;;3.42;;
56043;SDS011;41912;51.022;3.664;2023-08-30T09:37:39;11.25;;;2.60;;
56043;SDS011;41912;51.022;3.664;2023-08-30T09:40:05;8.95;;;2.08;;
56043;SDS011;41912;51.022;3.664;2023-08-30T09:42:31;7.18;;;2.20;;
56043;SDS011;41912;51.022;3.664;2023-08-30T09:44:57;12.90;;;2.42;;
56043;SDS011;41912;51.022;3.664;2023-08-30T09:47:26;11.52;;;2.47;;
56043;SDS011;41912;51.022;3.664;2023-08-30T09:49:52;9.43;;;2.78;;
56043;SDS011;41912;51.022;3.664;2023-08-30T09:52:20;8.38;;;2.00;;
56043;SDS011;41912;51.022;3.664;2023-08-30T09:54:52;7.07;;;2.53;;
56043;SDS011;41912;51.022;3.664;2023-08-30T09:57:18;7.63;;;2.10;;
56043;SDS011;41912;51.022;3.664;2023-08-30T09:59:44;9.93;;;2.70;;
56043;SDS011;41912;51.022;3.664;2023-08-30T10:02:11;20.48;;;3.85;;
56043;SDS011;41912;51.022;3.664;2023-08-30T10:04:40;13.85;;;2.97;;
56043;SDS011;41912;51.022;3.664;2023-08-30T10:07:06;7.97;;;2.40;;
56043;SDS011;41912;51.022;3.664;2023-08-30T10:09:32;10.65;;;3.08;;
56043;SDS011;41912;51.022;3.664;2023-08-30T10:11:58;8.70;;;2.50;;
56043;SDS011;41912;51.022;3.664;2023-08-30T10:14:26;11.05;;;2.28;;
56043;SDS011;41912;51.022;3.664;2023-08-30T10:16:56;6.50;;;1.98;;
56043;SDS011;41912;51.022;3.664;2023-08-30T10:19:28;10.27;;;2.00;;
56043;SDS011;41912;51.022;3.664;2023-08-30T10:24:37;12.25;;;2.63;;
56043;SDS011;41912;51.022;3.664;2023-08-30T10:29:32;13.00;;;2.40;;
56043;SDS011;41912;51.022;3.664;2023-08-30T10:32:05;10.75;;;2.38;;
56043;SDS011;41912;51.022;3.664;2023-08-30T10:34:35;6.78;;;1.73;;
56043;SDS011;41912;51.022;3.664;2023-08-30T10:37:07;6.43;;;2.13;;
56043;SDS011;41912;51.022;3.664;2023-08-30T10:39:38;9.82;;;2.80;;
56043;SDS011;41912;51.022;3.664;2023-08-30T10:42:09;10.48;;;2.13;;
56043;SDS011;41912;51.022;3.664;2023-08-30T10:47:32;9.98;;;2.92;;
56043;SDS011;41912;51.022;3.664;2023-08-30T10:50:04;7.93;;;2.40;;
56043;SDS011;41912;51.022;3.664;2023-08-30T10:52:31;6.97;;;2.08;;
56043;SDS011;41912;51.022;3.664;2023-08-30T10:57:36;10.25;;;2.10;;
56043;SDS011;41912;51.022;3.664;2023-08-30T11:02:50;9.95;;;1.90;;
56043;SDS011;41912;51.022;3.664;2023-08-30T11:05:17;10.40;;;2.28;;
56043;SDS011;41912;51.022;3.664;2023-08-30T11:07:44;13.90;;;2.15;;
56043;SDS011;41912;51.022;3.664;2023-08-30T11:10:11;11.60;;;2.15;;
56043;SDS011;41912;51.022;3.664;2023-08-30T11:12:39;7.60;;;1.80;;
56043;SDS011;41912;51.022;3.664;2023-08-30T11:15:09;10.38;;;2.50;;
56043;SDS011;41912;51.022;3.664;2023-08-30T11:17:36;9.23;;;2.30;;
56043;SDS011;41912;51.022;3.664;2023-08-30T11:20:05;10.10;;;1.90;;
56043;SDS011;41912;51.022;3.664;2023-08-30T11:22:34;7.80;;;2.10;;
56043;SDS011;41912;51.022;3.664;2023-08-30T11:25:04;9.85;;;1.65;;
56043;SDS011;41912;51.022;3.664;2023-08-30T11:27:31;7.32;;;2.05;;
56043;SDS011;41912;51.022;3.664;2023-08-30T11:30:00;7.72;;;1.52;;
56043;SDS011;41912;51.022;3.664;2023-08-30T11:32:40;5.82;;;1.65;;
56043;SDS011;41912;51.022;3.664;2023-08-30T11:35:09;5.78;;;1.60;;
56043;SDS011;41912;51.022;3.664;2023-08-30T11:37:35;8.20;;;2.10;;
56043;SDS011;41912;51.022;3.664;2023-08-30T11:40:02;10.68;;;2.22;;
56043;SDS011;41912;51.022;3.664;2023-08-30T11:42:30;4.95;;;1.75;;
56043;SDS011;41912;51.022;3.664;2023-08-30T11:44:57;9.85;;;2.00;;
56043;SDS011;41912;51.022;3.664;2023-08-30T11:47:24;9.07;;;1.75;;
56043;SDS011;41912;51.022;3.664;2023-08-30T11:49:54;12.70;;;2.00;;
56043;SDS011;41912;51.022;3.664;2023-08-30T11:52:22;7.57;;;1.80;;
56043;SDS011;41912;51.022;3.664;2023-08-30T11:54:49;6.47;;;1.63;;
56043;SDS011;41912;51.022;3.664;2023-08-30T11:57:15;9.15;;;1.88;;
56043;SDS011;41912;51.022;3.664;2023-08-30T11:59:41;8.35;;;1.65;;
56043;SDS011;41912;51.022;3.664;2023-08-30T12:02:07;5.65;;;1.35;;
56043;SDS011;41912;51.022;3.664;2023-08-30T12:04:40;10.07;;;1.73;;
56043;SDS011;41912;51.022;3.664;2023-08-30T12:07:07;8.68;;;1.38;;
56043;SDS011;41912;51.022;3.664;2023-08-30T12:09:33;8.68;;;1.63;;
56043;SDS011;41912;51.022;3.664;2023-08-30T12:12:09;5.72;;;1.17;;
56043;SDS011;41912;51.022;3.664;2023-08-30T12:14:36;6.28;;;1.58;;
56043;SDS011;41912;51.022;3.664;2023-08-30T12:17:02;6.30;;;1.73;;
56043;SDS011;41912;51.022;3.664;2023-08-30T12:19:28;7.18;;;1.45;;
56043;SDS011;41912;51.022;3.664;2023-08-30T12:21:54;8.95;;;1.77;;
56043;SDS011;41912;51.022;3.664;2023-08-30T12:24:20;6.55;;;1.67;;
56043;SDS011;41912;51.022;3.664;2023-08-30T12:26:47;8.32;;;1.50;;
56043;SDS011;41912;51.022;3.664;2023-08-30T12:29:13;12.73;;;2.15;;
56043;SDS011;41912;51.022;3.664;2023-08-30T12:31:39;8.23;;;1.50;;
56043;SDS011;41912;51.022;3.664;2023-08-30T12:34:04;7.07;;;1.67;;
56043;SDS011;41912;51.022;3.664;2023-08-30T12:36:30;8.93;;;1.60;;
56043;SDS011;41912;51.022;3.664;2023-08-30T12:38:56;6.38;;;1.67;;
56043;SDS011;41912;51.022;3.664;2023-08-30T12:41:22;6.75;;;1.50;;
56043;SDS011;41912;51.022;3.664;2023-08-30T12:43:48;8.52;;;1.73;;
56043;SDS011;41912;51.022;3.664;2023-08-30T12:46:15;10.57;;;1.95;;
56043;SDS011;41912;51.022;3.664;2023-08-30T12:48:41;5.68;;;1.67;;
56043;SDS011;41912;51.022;3.664;2023-08-30T12:51:06;8.60;;;1.55;;
56043;SDS011;41912;51.022;3.664;2023-08-30T12:53:32;7.63;;;1.50;;
56043;SDS011;41912;51.022;3.664;2023-08-30T12:55:58;6.65;;;2.00;;
56043;SDS011;41912;51.022;3.664;2023-08-30T12:58:23;5.30;;;1.40;;
56043;SDS011;41912;51.022;3.664;2023-08-30T13:00:49;6.28;;;1.67;;
56043;SDS011;41912;51.022;3.664;2023-08-30T13:03:15;7.18;;;1.33;;
56043;SDS011;41912;51.022;3.664;2023-08-30T13:05:40;4.93;;;1.25;;
56043;SDS011;41912;51.022;3.664;2023-08-30T13:08:06;5.03;;;1.42;;
56043;SDS011;41912;51.022;3.664;2023-08-30T13:10:32;5.63;;;1.30;;
56043;SDS011;41912;51.022;3.664;2023-08-30T13:12:58;7.18;;;1.40;;
56043;SDS011;41912;51.022;3.664;2023-08-30T13:15:23;5.43;;;1.38;;
56043;SDS011;41912;51.022;3.664;2023-08-30T13:17:49;6.28;;;1.38;;
56043;SDS011;41912;51.022;3.664;2023-08-30T13:20:15;4.32;;;1.40;;
56043;SDS011;41912;51.022;3.664;2023-08-30T13:22:41;5.03;;;1.40;;
56043;SDS011;41912;51.022;3.664;2023-08-30T13:25:07;7.72;;;1.50;;
56043;SDS011;41912;51.022;3.664;2023-08-30T13:27:33;9.00;;;1.73;;
56043;SDS011;41912;51.022;3.664;2023-08-30T13:29:59;10.35;;;1.27;;
56043;SDS011;41912;51.022;3.664;2023-08-30T13:32:25;4.57;;;0.90;;
56043;SDS011;41912;51.022;3.664;2023-08-30T13:34:50;8.82;;;1.38;;
56043;SDS011;41912;51.022;3.664;2023-08-30T13:37:16;6.28;;;1.50;;
56043;SDS011;41912;51.022;3.664;2023-08-30T13:39:42;8.98;;;1.83;;
56043;SDS011;41912;51.022;3.664;2023-08-30T13:42:08;8.00;;;1.40;;
56043;SDS011;41912;51.022;3.664;2023-08-30T13:44:34;9.48;;;1.20;;
56043;SDS011;41912;51.022;3.664;2023-08-30T13:47:02;5.93;;;1.40;;
56043;SDS011;41912;51.022;3.664;2023-08-30T13:49:29;12.90;;;2.28;;
56043;SDS011;41912;51.022;3.664;2023-08-30T13:51:55;5.15;;;1.48;;
56043;SDS011;41912;51.022;3.664;2023-08-30T13:54:20;7.20;;;1.63;;
56043;SDS011;41912;51.022;3.664;2023-08-30T13:56:46;7.07;;;1.13;;
56043;SDS011;41912;51.022;3.664;2023-08-30T13:59:11;6.13;;;1.38;;
56043;SDS011;41912;51.022;3.664;2023-08-30T14:01:37;5.97;;;1.38;;
56043;SDS011;41912;51.022;3.664;2023-08-30T14:04:03;7.68;;;1.10;;
56043;SDS011;41912;51.022;3.664;2023-08-30T14:06:30;6.95;;;1.00;;
56043;SDS011;41912;51.022;3.664;2023-08-30T14:08:56;10.63;;;1.50;;
56043;SDS011;41912;51.022;3.664;2023-08-30T14:11:22;3.50;;;1.17;;
56043;SDS011;41912;51.022;3.664;2023-08-30T14:13:47;4.93;;;1.10;;
56043;SDS011;41912;51.022;3.664;2023-08-30T14:16:13;9.18;;;1.40;;
56043;SDS011;41912;51.022;3.664;2023-08-30T14:18:39;2.92;;;0.77;;
56043;SDS011;41912;51.022;3.664;2023-08-30T14:21:05;2.70;;;1.00;;
56043;SDS011;41912;51.022;3.664;2023-08-30T14:23:30;2.90;;;0.98;;
56043;SDS011;41912;51.022;3.664;2023-08-30T14:26:00;6.35;;;1.40;;
56043;SDS011;41912;51.022;3.664;2023-08-30T14:30:54;5.88;;;1.17;;
56043;SDS011;41912;51.022;3.664;2023-08-30T14:33:20;8.30;;;0.90;;
56043;SDS011;41912;51.022;3.664;2023-08-30T14:35:46;3.47;;;0.80;;
56043;SDS011;41912;51.022;3.664;2023-08-30T14:38:11;6.60;;;1.20;;
56043;SDS011;41912;51.022;3.664;2023-08-30T14:40:37;9.73;;;1.20;;
56043;SDS011;41912;51.022;3.664;2023-08-30T14:43:03;13.98;;;1.77;;
56043;SDS011;41912;51.022;3.664;2023-08-30T14:45:29;5.10;;;0.85;;
56043;SDS011;41912;51.022;3.664;2023-08-30T14:47:55;4.45;;;1.08;;
56043;SDS011;41912;51.022;3.664;2023-08-30T14:50:21;6.38;;;1.08;;
56043;SDS011;41912;51.022;3.664;2023-08-30T14:52:47;11.70;;;1.33;;
56043;SDS011;41912;51.022;3.664;2023-08-30T14:55:12;4.80;;;1.30;;
56043;SDS011;41912;51.022;3.664;2023-08-30T14:57:38;4.97;;;1.10;;
56043;SDS011;41912;51.022;3.664;2023-08-30T15:00:04;8.20;;;1.52;;